createdAt,value
2019-05-17T00:02:27.833Z,9.65
2019-05-17T00:04:57.252Z,9.65
2019-05-17T00:07:27.307Z,9.60
2019-05-17T00:09:58.243Z,9.50
2019-05-17T00:12:28.494Z,9.43
2019-05-17T00:14:58.131Z,9.43
2019-05-17T00:17:28.073Z,9.38
2019-05-17T00:19:57.469Z,9.30
2019-05-17T00:22:27.127Z,9.27
2019-05-17T00:24:56.894Z,9.27
2019-05-17T00:27:26.626Z,9.21
2019-05-17T00:29:57.150Z,9.16
2019-05-17T00:32:27.468Z,9.12
2019-05-17T00:34:56.986Z,9.08
2019-05-17T00:37:26.586Z,9.05
2019-05-17T00:39:56.847Z,8.99
2019-05-17T00:42:26.541Z,8.97
2019-05-17T00:44:56.494Z,8.93
2019-05-17T00:47:26.697Z,8.93
2019-05-17T00:49:56.984Z,8.91
2019-05-17T00:52:27.403Z,8.88
2019-05-17T00:54:57.638Z,8.89
2019-05-17T00:57:27.543Z,8.81
2019-05-17T00:59:57.945Z,8.83
2019-05-17T01:02:27.504Z,8.81
2019-05-17T01:04:57.012Z,8.80
2019-05-17T01:07:26.951Z,8.80
2019-05-17T01:09:56.749Z,8.78
2019-05-17T01:12:27.142Z,8.76
2019-05-17T01:14:58.267Z,8.74
2019-05-17T01:17:27.964Z,8.74
2019-05-17T01:19:57.560Z,8.70
2019-05-17T01:22:27.090Z,8.70
2019-05-17T01:24:57.054Z,8.70
2019-05-17T01:27:26.744Z,8.69
2019-05-17T01:29:57.347Z,8.69
2019-05-17T01:32:27.576Z,8.70
2019-05-17T01:34:57.692Z,8.70
2019-05-17T01:37:28.669Z,8.70
2019-05-17T01:39:59.242Z,8.71
2019-05-17T01:42:29.930Z,8.71
2019-05-17T01:44:59.413Z,8.74
2019-05-17T01:47:28.783Z,8.76
2019-05-17T01:49:58.017Z,8.76
2019-05-17T01:52:27.544Z,8.81
2019-05-17T01:54:57.190Z,8.85
2019-05-17T01:57:27.437Z,8.92
2019-05-17T01:59:57.292Z,8.92
2019-05-17T02:02:31.366Z,8.94
2019-05-17T02:05:00.657Z,8.96
2019-05-17T02:07:29.948Z,8.98
2019-05-17T02:09:59.279Z,8.98
2019-05-17T02:12:29.283Z,9.06
2019-05-17T02:14:58.738Z,9.10
2019-05-17T02:17:28.789Z,9.16
2019-05-17T02:19:58.309Z,9.16
2019-05-17T02:22:27.714Z,9.20
2019-05-17T02:24:57.183Z,9.16
2019-05-17T02:27:32.133Z,9.16
2019-05-17T02:29:58.438Z,9.36
2019-05-17T02:32:28.312Z,9.41
2019-05-17T02:34:58.575Z,9.44
2019-05-17T02:37:28.455Z,9.44
2019-05-17T02:40:06.945Z,9.56
2019-05-17T02:42:33.281Z,9.64
2019-05-17T02:45:03.596Z,9.70
2019-05-17T02:47:34.005Z,9.70
2019-05-17T02:50:05.567Z,9.75
2019-05-17T02:52:36.791Z,9.62
2019-05-17T02:55:07.109Z,9.93
2019-05-17T02:57:36.922Z,10.01
2019-05-17T03:00:07.259Z,10.10
2019-05-17T03:02:36.674Z,10.11
2019-05-17T03:05:06.480Z,10.23
2019-05-17T03:07:35.962Z,10.41
2019-05-17T03:10:18.256Z,10.41
2019-05-17T03:12:38.239Z,10.43
2019-05-17T03:15:07.954Z,10.50
2019-05-17T03:17:37.451Z,10.57
2019-05-17T03:20:07.701Z,10.69
2019-05-17T03:22:37.035Z,10.79
2019-05-17T03:25:06.652Z,10.89
2019-05-17T03:27:36.140Z,10.99
2019-05-17T03:30:06.196Z,11.10
2019-05-17T03:32:36.815Z,11.13
2019-05-17T03:35:07.851Z,11.21
2019-05-17T03:37:38.244Z,11.35
2019-05-17T03:40:27.568Z,11.35
2019-05-17T03:42:42.829Z,11.43
2019-05-17T03:45:13.586Z,11.43
2019-05-17T03:47:44.585Z,11.40
2019-05-17T03:50:14.655Z,11.64
2019-05-17T03:52:45.016Z,11.64
2019-05-17T03:55:14.456Z,11.70
2019-05-17T03:57:44.518Z,11.77
2019-05-17T04:00:16.981Z,11.82
2019-05-17T04:02:46.570Z,11.98
2019-05-17T04:05:16.810Z,12.07
2019-05-17T04:07:46.513Z,12.10
2019-05-17T04:10:16.638Z,12.06
2019-05-17T04:12:46.254Z,12.06
2019-05-17T04:15:16.065Z,12.24
2019-05-17T04:17:45.906Z,12.26
2019-05-17T04:20:16.195Z,12.32
2019-05-17T04:22:46.664Z,12.39
2019-05-17T04:25:17.029Z,12.47
2019-05-17T04:27:46.126Z,12.47
2019-05-17T04:30:15.601Z,12.50
2019-05-17T04:32:44.853Z,12.54
2019-05-17T04:35:14.868Z,12.55
2019-05-17T04:37:45.116Z,12.63
2019-05-17T04:40:15.082Z,12.70
2019-05-17T04:42:44.906Z,12.75
2019-05-17T04:45:14.471Z,12.75
2019-05-17T04:47:44.979Z,12.77
2019-05-17T04:50:14.437Z,12.71
2019-05-17T04:52:43.859Z,12.71
2019-05-17T04:55:14.158Z,12.89
2019-05-17T04:57:44.470Z,12.89
2019-05-17T05:00:15.066Z,12.96
2019-05-17T05:02:44.539Z,13.00
2019-05-17T05:05:14.558Z,13.00
2019-05-17T05:07:44.099Z,13.02
2019-05-17T05:10:14.371Z,13.04
2019-05-17T05:12:44.461Z,13.06
2019-05-17T05:15:14.328Z,13.13
2019-05-17T05:17:43.721Z,13.15
2019-05-17T05:20:13.582Z,13.22
2019-05-17T05:22:43.290Z,13.27
2019-05-17T05:25:13.515Z,13.37
2019-05-17T05:27:43.090Z,13.40
2019-05-17T05:30:12.782Z,13.48
2019-05-17T05:32:42.905Z,13.56
2019-05-17T05:35:12.884Z,13.66
2019-05-17T05:37:42.684Z,13.70
2019-05-17T05:40:13.023Z,13.79
2019-05-17T05:42:42.981Z,13.84
2019-05-17T05:45:12.518Z,13.90
2019-05-17T05:47:41.730Z,13.94
2019-05-17T05:50:12.489Z,14.01
2019-05-17T05:52:42.621Z,14.05
2019-05-17T05:55:12.767Z,14.08
2019-05-17T05:57:42.482Z,14.12
2019-05-17T06:00:13.734Z,14.15
2019-05-17T06:02:43.218Z,14.18
2019-05-17T06:05:16.943Z,14.17
2019-05-17T06:07:43.697Z,14.19
2019-05-17T06:10:13.405Z,14.27
2019-05-17T06:12:43.710Z,14.32
2019-05-17T06:15:13.185Z,14.34
2019-05-17T06:17:42.993Z,14.36
2019-05-17T06:20:13.078Z,14.36
2019-05-17T06:22:43.067Z,14.40
2019-05-17T06:25:14.842Z,14.44
2019-05-17T06:27:44.241Z,14.48
2019-05-17T06:30:14.832Z,14.51
2019-05-17T06:32:43.988Z,14.57
2019-05-17T06:35:13.596Z,14.64
2019-05-17T06:37:42.870Z,14.70
2019-05-17T06:40:13.295Z,14.74
2019-05-17T06:42:45.567Z,14.79
2019-05-17T06:45:14.286Z,14.79
2019-05-17T06:47:43.974Z,14.81
2019-05-17T06:50:14.408Z,14.85
2019-05-17T06:52:44.981Z,14.86
2019-05-17T06:55:14.062Z,14.91
2019-05-17T06:57:43.652Z,14.92
2019-05-17T07:00:20.570Z,14.96
2019-05-17T07:02:45.349Z,15.01
2019-05-17T07:05:20.086Z,15.04
2019-05-17T07:07:49.951Z,14.93
2019-05-17T07:10:19.735Z,14.93
2019-05-17T07:12:55.919Z,15.11
2019-05-17T07:15:20.303Z,15.19
2019-05-17T07:17:50.451Z,15.23
2019-05-17T07:20:20.251Z,15.26
2019-05-17T07:22:50.684Z,15.25
2019-05-17T07:25:20.148Z,15.24
2019-05-17T07:27:50.350Z,15.25
2019-05-17T07:30:20.293Z,15.28
2019-05-17T07:32:49.906Z,15.37
2019-05-17T07:35:19.812Z,15.44
2019-05-17T07:37:50.104Z,15.53
2019-05-17T07:40:20.515Z,15.59
2019-05-17T07:42:50.103Z,15.62
2019-05-17T07:45:22.312Z,15.61
2019-05-17T07:47:51.661Z,15.67
2019-05-17T07:50:21.321Z,15.62
2019-05-17T07:52:50.575Z,15.58
2019-05-17T07:55:22.820Z,15.64
2019-05-17T07:57:50.834Z,15.69
2019-05-17T08:00:21.115Z,15.75
2019-05-17T08:02:50.605Z,15.81
2019-05-17T08:05:21.346Z,15.81
2019-05-17T08:07:50.942Z,15.79
2019-05-17T08:10:20.655Z,15.77
2019-05-17T08:12:50.058Z,15.75
2019-05-17T08:15:19.920Z,15.79
2019-05-17T08:17:50.204Z,15.83
2019-05-17T08:20:20.514Z,15.84
2019-05-17T08:22:50.225Z,15.86
2019-05-17T08:25:20.081Z,15.85
2019-05-17T08:27:50.383Z,15.86
2019-05-17T08:30:22.258Z,15.89
2019-05-17T08:32:51.721Z,15.95
2019-05-17T08:35:21.072Z,16.01
2019-05-17T08:37:50.327Z,16.10
2019-05-17T08:40:20.122Z,16.17
2019-05-17T08:42:49.910Z,16.19
2019-05-17T08:45:20.643Z,16.20
2019-05-17T08:47:50.161Z,16.22
2019-05-17T08:50:20.275Z,16.22
2019-05-17T08:52:49.920Z,16.23
2019-05-17T08:55:20.452Z,16.19
2019-05-17T08:57:50.167Z,16.32
2019-05-17T09:00:20.707Z,16.40
2019-05-17T09:02:50.153Z,16.44
2019-05-17T09:05:21.114Z,16.48
2019-05-17T09:07:50.969Z,16.51
2019-05-17T09:10:20.907Z,16.56
2019-05-17T09:12:50.441Z,16.57
2019-05-17T09:15:20.529Z,16.54
2019-05-17T09:17:50.180Z,16.53
2019-05-17T09:20:20.496Z,16.61
2019-05-17T09:22:51.064Z,16.67
2019-05-17T09:25:22.068Z,16.68
2019-05-17T09:27:51.544Z,16.72
2019-05-17T09:30:25.462Z,16.70
2019-05-17T09:32:53.546Z,16.70
2019-05-17T09:35:23.287Z,16.67
2019-05-17T09:37:52.676Z,16.67
2019-05-17T09:40:21.996Z,16.67
2019-05-17T09:42:52.610Z,16.70
2019-05-17T09:45:21.924Z,16.69
2019-05-17T09:47:51.359Z,16.71
2019-05-17T09:50:21.008Z,16.72
2019-05-17T09:52:50.531Z,16.82
2019-05-17T09:55:19.757Z,16.87
2019-05-17T09:57:49.738Z,16.96
2019-05-17T10:00:20.903Z,16.99
2019-05-17T10:02:50.921Z,16.96
2019-05-17T10:05:21.238Z,16.98
2019-05-17T10:07:50.873Z,16.98
2019-05-17T10:10:20.450Z,16.96
2019-05-17T10:12:50.070Z,16.96
2019-05-17T10:15:20.682Z,16.99
2019-05-17T10:17:50.260Z,17.01
2019-05-17T10:20:19.966Z,17.05
2019-05-17T10:22:50.441Z,17.15
2019-05-17T10:25:20.247Z,17.21
2019-05-17T10:27:49.897Z,17.27
2019-05-17T10:30:20.901Z,17.32
2019-05-17T10:32:52.265Z,17.34
2019-05-17T10:35:21.976Z,17.35
2019-05-17T10:37:51.445Z,17.31
2019-05-17T10:40:20.996Z,17.32
2019-05-17T10:42:50.518Z,17.29
2019-05-17T10:45:20.335Z,17.28
2019-05-17T10:47:50.255Z,17.33
2019-05-17T10:50:20.822Z,17.34
2019-05-17T10:52:50.206Z,17.39
2019-05-17T10:55:19.947Z,17.40
2019-05-17T10:57:50.106Z,17.48
2019-05-17T11:00:19.978Z,17.50
2019-05-17T11:02:52.377Z,17.54
2019-05-17T11:05:21.604Z,17.61
2019-05-17T11:07:50.756Z,17.67
2019-05-17T11:10:19.952Z,17.75
2019-05-17T11:12:49.061Z,17.96
2019-05-17T11:15:18.403Z,18.37
2019-05-17T11:17:47.707Z,19.26
2019-05-17T11:20:17.438Z,20.77
2019-05-17T11:22:47.143Z,22.49
2019-05-17T11:25:18.393Z,23.69
2019-05-17T11:27:47.652Z,24.05
2019-05-17T11:30:17.437Z,23.40
2019-05-17T11:32:46.726Z,22.75
2019-05-17T11:35:16.277Z,22.17
2019-05-17T11:37:45.854Z,21.68
2019-05-17T11:40:15.863Z,21.26
2019-05-17T11:42:45.032Z,21.17
2019-05-17T11:45:26.676Z,21.68
2019-05-17T11:47:45.755Z,23.06
2019-05-17T11:50:15.574Z,25.23
2019-05-17T11:52:44.595Z,27.47
2019-05-17T11:55:13.958Z,29.38
2019-05-17T11:57:45.574Z,30.89
2019-05-17T12:00:16.756Z,31.73
2019-05-17T12:02:46.638Z,32.67
2019-05-17T12:05:16.067Z,33.84
2019-05-17T12:07:45.446Z,35.11
2019-05-17T12:10:15.343Z,36.08
2019-05-17T12:12:44.282Z,37.03
2019-05-17T12:15:13.441Z,37.62
2019-05-17T12:17:42.397Z,38.13
2019-05-17T12:20:12.156Z,38.44
2019-05-17T12:22:41.496Z,38.74
2019-05-17T12:25:11.107Z,39.02
2019-05-17T12:27:40.205Z,39.57
2019-05-17T12:30:10.078Z,40.29
2019-05-17T12:32:38.863Z,40.65
2019-05-17T12:35:08.264Z,40.94
2019-05-17T12:37:37.314Z,40.99
2019-05-17T12:40:06.776Z,41.08
2019-05-17T12:42:36.147Z,41.20
2019-05-17T12:45:05.267Z,41.27
2019-05-17T12:47:35.766Z,41.58
2019-05-17T12:50:05.059Z,42.01
2019-05-17T12:52:34.211Z,42.24
2019-05-17T12:55:03.165Z,42.38
2019-05-17T12:57:32.013Z,42.50
2019-05-17T13:00:01.487Z,42.49
2019-05-17T13:02:30.432Z,42.60
2019-05-17T13:04:59.351Z,42.77
2019-05-17T13:07:28.328Z,42.72
2019-05-17T13:09:57.886Z,42.57
2019-05-17T13:12:26.925Z,42.64
2019-05-17T13:14:55.704Z,42.37
2019-05-17T13:17:24.862Z,42.08
2019-05-17T13:19:53.830Z,41.80
2019-05-17T13:22:22.928Z,41.64
2019-05-17T13:24:52.291Z,41.30
2019-05-17T13:27:21.454Z,40.95
2019-05-17T13:29:50.988Z,40.74
2019-05-17T13:32:19.825Z,40.92
2019-05-17T13:34:50.288Z,41.21
2019-05-17T13:37:19.396Z,41.41
2019-05-17T13:39:48.541Z,41.78
2019-05-17T13:42:17.489Z,41.89
2019-05-17T13:44:46.769Z,42.01
2019-05-17T13:47:15.725Z,42.11
2019-05-17T13:49:44.949Z,42.24
2019-05-17T13:52:13.910Z,42.38
2019-05-17T13:54:45.283Z,42.21
2019-05-17T13:57:14.173Z,41.76
2019-05-17T13:59:43.594Z,41.43
2019-05-17T14:02:13.427Z,41.14
2019-05-17T14:04:47.329Z,40.73
2019-05-17T14:07:16.726Z,40.06
2019-05-17T14:09:46.721Z,39.99
2019-05-17T14:12:15.598Z,39.69
2019-05-17T14:14:44.390Z,39.83
2019-05-17T14:17:13.299Z,39.74
2019-05-17T14:19:42.842Z,40.16
2019-05-17T14:22:11.644Z,40.59
2019-05-17T14:24:40.396Z,41.05
2019-05-17T14:27:09.241Z,41.01
2019-05-17T14:29:38.750Z,40.78
2019-05-17T14:32:08.444Z,40.57
2019-05-17T14:34:37.850Z,40.54
2019-05-17T14:37:07.764Z,40.25
2019-05-17T14:39:37.655Z,40.02
2019-05-17T14:42:07.046Z,39.98
2019-05-17T14:44:36.045Z,39.58
2019-05-17T14:47:05.227Z,38.93
2019-05-17T14:49:34.753Z,38.53
2019-05-17T14:52:03.673Z,38.30
2019-05-17T14:54:32.500Z,38.25
2019-05-17T14:57:02.396Z,38.20
2019-05-17T14:59:31.262Z,38.61
2019-05-17T15:02:00.179Z,38.69
2019-05-17T15:04:28.883Z,38.67
2019-05-17T15:06:57.786Z,38.77
2019-05-17T15:09:27.072Z,38.44
2019-05-17T15:11:56.391Z,38.06
2019-05-17T15:14:29.446Z,37.60
2019-05-17T15:16:56.469Z,37.10
2019-05-17T15:19:26.271Z,35.72
2019-05-17T15:21:55.269Z,33.29
2019-05-17T15:24:24.222Z,31.04
2019-05-17T15:27:04.819Z,29.20
2019-05-17T15:29:23.594Z,27.69
2019-05-17T15:31:52.398Z,26.51
2019-05-17T15:34:21.830Z,25.52
2019-05-17T15:36:50.914Z,24.71
2019-05-17T15:39:20.423Z,24.12
2019-05-17T15:41:50.029Z,23.51
2019-05-17T15:44:19.130Z,22.99
2019-05-17T15:46:48.207Z,22.57
2019-05-17T15:49:17.420Z,22.22
2019-05-17T15:51:46.769Z,22.04
2019-05-17T15:54:15.838Z,21.79
2019-05-17T15:56:44.993Z,21.59
2019-05-17T15:59:14.147Z,21.45
2019-05-17T16:01:43.903Z,21.23
2019-05-17T16:04:13.114Z,21.02
2019-05-17T16:06:43.138Z,20.87
2019-05-17T16:09:12.344Z,20.67
2019-05-17T16:11:41.673Z,20.50
2019-05-17T16:14:11.850Z,20.37
2019-05-17T16:16:40.997Z,20.21
2019-05-17T16:19:10.858Z,20.08
2019-05-17T16:21:40.020Z,19.92
2019-05-17T16:24:09.355Z,19.78
2019-05-17T16:26:38.536Z,19.65
2019-05-17T16:29:07.872Z,19.56
2019-05-17T16:31:37.023Z,19.46
2019-05-17T16:34:06.393Z,19.40
2019-05-17T16:36:35.587Z,19.40
2019-05-17T16:39:08.377Z,19.31
2019-05-17T16:41:37.257Z,19.22
2019-05-17T16:44:06.410Z,19.11
2019-05-17T16:46:35.504Z,18.99
2019-05-17T16:49:04.461Z,18.90
2019-05-17T16:51:33.684Z,18.77
2019-05-17T16:54:02.927Z,18.73
2019-05-17T16:56:31.855Z,18.64
2019-05-17T16:59:00.949Z,18.57
2019-05-17T17:01:30.926Z,18.46
2019-05-17T17:03:59.952Z,18.36
2019-05-17T17:06:29.072Z,18.30
2019-05-17T17:08:58.420Z,18.23
2019-05-17T17:11:29.310Z,18.15
2019-05-17T17:13:58.567Z,18.09
2019-05-17T17:16:27.736Z,18.03
2019-05-17T17:18:56.840Z,17.96
2019-05-17T17:21:26.030Z,17.90
2019-05-17T17:23:55.086Z,17.83
2019-05-17T17:26:24.344Z,17.76
2019-05-17T17:28:53.520Z,17.69
2019-05-17T17:31:22.570Z,17.62
2019-05-17T17:33:51.663Z,17.54
2019-05-17T17:36:20.698Z,17.49
2019-05-17T17:38:49.950Z,17.43
2019-05-17T17:41:19.163Z,17.35
2019-05-17T17:43:58.048Z,17.29
2019-05-17T17:46:19.676Z,17.22
2019-05-17T17:48:49.044Z,17.14
2019-05-17T17:51:18.070Z,17.09
2019-05-17T17:53:47.472Z,17.05
2019-05-17T17:56:16.820Z,17.02
2019-05-17T17:58:46.128Z,17.01
2019-05-17T18:01:15.972Z,16.98
2019-05-17T18:03:45.127Z,16.91
2019-05-17T18:06:14.605Z,16.83
2019-05-17T18:08:43.612Z,16.80
2019-05-17T18:11:13.033Z,16.74
2019-05-17T18:13:42.269Z,16.67
2019-05-17T18:16:11.568Z,16.57
2019-05-17T18:18:40.562Z,16.48
2019-05-17T18:21:10.101Z,16.36
2019-05-17T18:23:39.330Z,16.24
2019-05-17T18:26:09.568Z,16.15
2019-05-17T18:28:38.679Z,16.05
2019-05-17T18:31:08.557Z,15.98
2019-05-17T18:33:37.831Z,15.91
2019-05-17T18:36:07.220Z,15.88
2019-05-17T18:38:37.361Z,15.81
2019-05-17T18:41:06.714Z,15.74
2019-05-17T18:43:36.105Z,15.68
2019-05-17T18:46:05.605Z,15.65
2019-05-17T18:48:34.993Z,15.60
2019-05-17T18:51:04.910Z,15.58
2019-05-17T18:53:34.601Z,15.58
2019-05-17T18:56:05.309Z,15.58
2019-05-17T18:58:35.600Z,15.54
2019-05-17T19:01:05.231Z,15.53
2019-05-17T19:03:37.103Z,15.52
2019-05-17T19:06:06.903Z,15.51
2019-05-17T19:11:24.513Z,15.48
2019-05-17T19:13:53.970Z,15.48
2019-05-17T19:16:24.341Z,15.48
2019-05-17T19:18:56.458Z,15.46
2019-05-17T19:21:25.819Z,15.45
2019-05-17T19:23:58.080Z,15.42
2019-05-17T19:26:27.748Z,15.31
2019-05-17T19:28:58.046Z,15.42
2019-05-17T19:31:27.378Z,15.42
2019-05-17T19:34:00.534Z,15.39
2019-05-17T19:36:30.509Z,15.41
2019-05-17T19:39:00.819Z,15.27
2019-05-17T19:41:32.643Z,15.27
2019-05-17T19:44:02.837Z,15.32
2019-05-17T19:46:32.318Z,15.33
2019-05-17T19:49:02.083Z,15.29
2019-05-17T19:51:31.866Z,15.38
2019-05-17T19:54:03.329Z,15.45
2019-05-17T19:56:33.995Z,15.53
2019-05-17T19:59:06.199Z,15.59
2019-05-17T20:01:35.515Z,15.66
2019-05-17T20:04:05.125Z,15.67
2019-05-17T20:06:34.797Z,15.68
2019-05-17T20:09:04.775Z,15.61
2019-05-17T20:11:35.064Z,15.58
2019-05-17T20:14:05.206Z,15.55
2019-05-17T20:16:34.177Z,15.48
2019-05-17T20:19:05.030Z,15.45
2019-05-17T20:21:34.890Z,15.34
2019-05-17T20:24:04.215Z,15.34
2019-05-17T20:26:33.300Z,15.33
2019-05-17T20:29:02.601Z,15.31
2019-05-17T20:31:31.939Z,15.27
2019-05-17T20:34:01.111Z,15.24
2019-05-17T20:36:30.796Z,15.19
2019-05-17T20:39:00.392Z,15.15
2019-05-17T20:41:31.633Z,15.10
2019-05-17T20:44:01.432Z,15.02
2019-05-17T20:46:31.374Z,14.95
2019-05-17T20:49:01.527Z,14.86
2019-05-17T20:51:32.369Z,14.83
2019-05-17T20:54:01.546Z,14.81
2019-05-17T20:56:33.277Z,14.81
2019-05-17T20:59:01.681Z,14.76
2019-05-17T21:01:30.925Z,14.73
2019-05-17T21:04:01.081Z,14.76
2019-05-17T21:06:30.302Z,14.74
2019-05-17T21:08:59.458Z,14.77
2019-05-17T21:11:28.700Z,14.78
2019-05-17T21:13:58.309Z,14.79
2019-05-17T21:16:27.508Z,14.76
2019-05-17T21:18:56.658Z,14.75
2019-05-17T21:21:25.742Z,14.73
2019-05-17T21:23:56.030Z,14.67
2019-05-17T21:26:25.276Z,14.68
2019-05-17T21:28:54.653Z,14.60
2019-05-17T21:31:26.682Z,14.51
2019-05-17T21:33:59.486Z,14.50
2019-05-17T21:36:28.757Z,14.44
2019-05-17T21:38:57.892Z,14.40
2019-05-17T21:41:27.060Z,14.39
2019-05-17T21:43:56.974Z,14.34
2019-05-17T21:46:26.645Z,14.31
2019-05-17T21:48:55.910Z,14.30
2019-05-17T21:51:25.699Z,14.28
2019-05-17T21:53:55.752Z,14.31
2019-05-17T21:56:25.087Z,14.27
2019-05-17T21:58:55.048Z,14.24
2019-05-17T22:01:27.904Z,14.24
2019-05-17T22:03:58.444Z,14.11
2019-05-17T22:06:27.485Z,14.11
2019-05-17T22:08:56.678Z,14.05
2019-05-17T22:11:26.092Z,14.05
2019-05-17T22:13:56.460Z,14.06
2019-05-17T22:16:25.649Z,14.06
2019-05-17T22:18:55.960Z,14.01
2019-05-17T22:21:25.482Z,13.94
2019-05-17T22:23:54.558Z,13.88
2019-05-17T22:26:23.906Z,13.83
2019-05-17T22:28:52.906Z,13.83
2019-05-17T22:31:22.176Z,13.83
2019-05-17T22:33:51.498Z,13.79
2019-05-17T22:36:20.628Z,13.78
2019-05-17T22:38:49.639Z,13.64
2019-05-17T22:41:18.758Z,13.78
2019-05-17T22:43:47.987Z,13.82
2019-05-17T22:46:18.160Z,13.76
2019-05-17T22:48:47.717Z,13.77
2019-05-17T22:51:16.778Z,13.76
2019-05-17T22:53:46.022Z,13.73
2019-05-17T22:56:15.955Z,13.67
2019-05-17T22:58:45.987Z,13.67
2019-05-17T23:01:15.335Z,13.61
2019-05-17T23:03:45.037Z,13.55
2019-05-17T23:06:14.562Z,13.51
2019-05-17T23:08:44.575Z,13.47
2019-05-17T23:11:14.150Z,13.46
2019-05-17T23:13:43.840Z,13.43
2019-05-17T23:16:14.332Z,13.37
2019-05-17T23:19:02.383Z,13.34
2019-05-17T23:21:31.576Z,13.32
2019-05-17T23:24:00.734Z,13.25
2019-05-17T23:26:30.001Z,13.23
2019-05-17T23:28:59.253Z,13.24
2019-05-17T23:31:28.606Z,13.22
2019-05-17T23:33:57.809Z,13.23
2019-05-17T23:36:27.439Z,13.19
2019-05-17T23:38:57.179Z,13.20
2019-05-17T23:41:26.221Z,13.18
2019-05-17T23:43:55.519Z,13.18
2019-05-17T23:46:24.789Z,13.15
2019-05-17T23:48:55.016Z,13.11
2019-05-17T23:51:24.002Z,13.11
2019-05-17T23:53:53.210Z,13.05
2019-05-17T23:56:22.394Z,13.01
2019-05-17T23:58:51.434Z,13.00
